Latest Coastal Weather Observations for Rundle Island

IDQ60701

Issued at 5:51 pm EST Monday 22 December 2014 (issued every 10 minutes, with the page automatically refreshed every 10 minutes)

About coastal observations | Map of coastal stations | Coastal observations for QLD | Marine services | Other Formats
Station Details ID: 039322 Name: RUNDLE ISLAND Lat: -23.53 Lon: 151.28 Height: 19.8 m
Data from the previous 72 hours. | See also: Recent months at Rundle Island
Date/Time
EST
Temp

°C
Wind Pressure Rain
since 9am
mm
Weather Cloud Vis
km
Sea
Height
m
Swell
Dir
 
Speed
knots
Gust
knots
hPa Trend Height
m
Period
s
Dir
22/05:30pm 25.8 E 20 23 1012.8 - - - - - - - - -
22/05:00pm 25.8 ESE 21 24 1012.4 - - - - - - - - -
22/04:30pm 26.3 ESE 20 22 1012.6 - - - - - - - - -
22/04:00pm 26.3 ESE 19 22 1012.6 - - - - - - - - -
22/03:30pm 26.3 ESE 19 22 1012.4 - - - - - - - - -
22/03:00pm 26.2 ESE 19 21 1012.8 - - - - - - - - -
22/02:30pm 26.3 ESE 18 21 1013.3 - - - - - - - - -
22/02:00pm 26.6 ESE 18 21 1013.7 - - - - - - - - -
22/01:30pm 26.5 ESE 18 20 1014.2 - - - - - - - - -
22/01:00pm 26.0 ESE 17 19 1014.5 - - - - - - - - -
22/12:30pm 26.1 ESE 15 18 1014.8 - - - - - - - - -
22/12:00pm 25.9 SE 17 20 1015.1 - - - - - - - - -
22/11:30am 25.7 SE 16 20 1015.5 - - - - - - - - -
22/11:00am 25.8 SE 14 18 1015.5 - - - - - - - - -
22/10:30am 25.6 SE 15 19 1015.7 - - - - - - - - -
22/10:00am 25.4 SE 15 18 1015.7 - - - - - - - - -
22/09:30am 25.3 SE 15 19 1015.6 - - - - - - - - -
22/09:00am 25.4 SE 16 20 1015.5 - - - - - - - - -
22/08:30am 25.2 SE 17 21 1015.4 - - - - - - - - -
22/08:00am 25.2 SE 17 21 1015.2 - - - - - - - - -
22/07:30am 25.1 SE 17 20 1015.1 - - - - - - - - -
22/07:00am 25.3 ESE 17 20 1015.0 - - - - - - - - -
22/06:30am 25.5 ESE 17 20 1014.6 - - - - - - - - -
22/06:00am 25.2 ESE 16 19 1014.2 - - - - - - - - -
22/05:30am 25.2 ESE 16 19 1013.9 - - - - - - - - -
22/05:00am 25.1 ESE 14 16 1013.4 - - - - - - - - -
22/04:30am 25.1 ESE 12 14 1013.1 - - - - - - - - -
22/04:00am 25.1 ESE 12 15 1013.1 - - - - - - - - -
22/03:30am 25.1 ESE 12 14 1012.9 - - - - - - - - -
22/03:00am 25.2 ESE 13 15 1013.2 - - - - - - - - -
22/02:30am 25.1 ESE 13 15 1013.2 - - - - - - - - -
22/02:00am 25.1 ESE 15 17 1013.6 - - - - - - - - -
22/01:30am 25.3 ESE 15 17 1014.1 - - - - - - - - -
22/01:00am 25.4 ESE 16 19 1014.4 - - - - - - - - -
22/12:30am 25.4 ESE 14 18 1014.7 - - - - - - - - -
22/12:00am 25.5 E 13 17 1015.1 - - - - - - - - -
 
Date/Time
EST
Temp

°C
Wind Pressure Rain
since 9am
mm
Weather Cloud Vis
km
Sea
Height
m
Swell
Dir
 
Speed
knots
Gust
knots
hPa Trend Height
m
Period
s
Dir
21/11:30pm 25.5 E 13 16 1015.1 - - - - - - - - -
21/11:00pm 25.5 ESE 15 18 1015.5 - - - - - - - - -
21/10:30pm 25.7 ESE 13 16 1015.8 - - - - - - - - -
21/10:00pm 25.6 E 14 18 1015.8 - - - - - - - - -
21/09:30pm 25.7 E 15 18 1015.7 - - - - - - - - -
21/09:00pm 25.8 E 14 17 1015.4 - - - - - - - - -
21/08:30pm 25.8 E 14 16 1015.2 - - - - - - - - -
21/08:00pm 25.7 E 15 18 1015.0 - - - - - - - - -
21/07:30pm 25.8 E 15 18 1014.9 - - - - - - - - -
21/07:00pm 25.7 E 17 19 1014.5 - - - - - - - - -
21/06:30pm 26.0 E 16 18 1014.1 - - - - - - - - -
21/06:00pm 26.0 E 15 18 1013.9 - - - - - - - - -
21/05:30pm 26.1 E 15 17 1013.6 - - - - - - - - -
21/05:00pm 26.3 E 14 17 1013.3 - - - - - - - - -
21/04:30pm 26.4 E 14 17 1013.1 - - - - - - - - -
21/04:00pm 26.6 E 13 15 1013.3 - - - - - - - - -
21/03:30pm 26.6 E 12 14 1013.5 - - - - - - - - -
21/03:00pm 26.8 E 12 15 1013.5 - - - - - - - - -
21/02:30pm 26.6 E 12 13 1013.8 - - - - - - - - -
21/02:00pm 27.2 E 10 13 1014.2 - - - - - - - - -
21/01:30pm 27.3 ESE 9 11 1014.5 - - - - - - - - -
21/01:00pm 27.5 ESE 8 11 1015.0 - - - - - - - - -
21/12:30pm 27.6 ESE 8 11 1015.3 - - - - - - - - -
21/12:00pm 27.3 ESE 11 13 1015.5 - - - - - - - - -
21/11:30am 26.9 ESE 10 12 1015.8 - - - - - - - - -
21/11:00am 27.1 ESE 11 12 1016.0 - - - - - - - - -
21/10:30am 26.7 ESE 11 14 1015.9 - - - - - - - - -
21/10:00am 27.0 ESE 11 13 1016.0 - - - - - - - - -
21/09:30am 27.4 ESE 11 13 1015.9 - - - - - - - - -
21/09:00am 27.0 ESE 12 14 1015.8 - - - - - - - - -
21/08:30am 27.0 ESE 13 15 1015.5 - - - - - - - - -
21/08:00am 26.8 ESE 13 15 1015.4 - - - - - - - - -
21/07:30am 26.9 ESE 12 15 1015.3 - - - - - - - - -
21/07:00am 26.7 E 13 14 1014.9 - - - - - - - - -
21/06:30am 26.5 E 12 13 1014.7 - - - - - - - - -
21/06:00am 25.9 E 12 14 1014.3 - - - - - - - - -
21/05:30am 25.6 E 12 14 1013.8 - - - - - - - - -
21/05:00am 25.5 E 13 15 1013.4 - - - - - - - - -
21/04:30am 25.6 E 12 15 1013.2 - - - - - - - - -
21/04:00am 25.6 E 14 15 1012.8 - - - - - - - - -
21/03:30am 25.6 E 14 17 1012.6 - - - - - - - - -
21/03:00am 25.6 E 14 16 1012.6 - - - - - - - - -
21/02:30am 25.6 E 14 16 1012.8 - - - - - - - - -
21/02:00am 25.8 E 14 16 1013.2 - - - - - - - - -
21/01:30am 25.7 E 15 16 1013.3 - - - - - - - - -
21/01:00am 25.7 E 14 16 1013.4 - - - - - - - - -
21/12:30am 25.8 E 14 16 1013.5 - - - - - - - - -
21/12:00am 25.7 E 16 17 1013.8 - - - - - - - - -
 
Date/Time
EST
Temp

°C
Wind Pressure Rain
since 9am
mm
Weather Cloud Vis
km
Sea
Height
m
Swell
Dir
 
Speed
knots
Gust
knots
hPa Trend Height
m
Period
s
Dir
20/11:30pm 25.8 E 15 17 1014.1 - - - - - - - - -
20/11:00pm 26.0 E 14 17 1014.5 - - - - - - - - -
20/10:30pm 25.9 E 14 17 1014.6 - - - - - - - - -
20/10:00pm 26.0 E 14 17 1014.7 - - - - - - - - -
20/09:30pm 25.8 E 15 17 1014.4 - - - - - - - - -
20/09:00pm 25.9 E 16 18 1013.9 - - - - - - - - -
20/08:30pm 25.9 E 15 17 1013.6 - - - - - - - - -
20/08:00pm 26.1 E 16 19 1013.4 - - - - - - - - -
20/07:30pm 26.1 E 15 17 1013.0 - - - - - - - - -
20/07:00pm 26.1 E 15 17 1012.7 - - - - - - - - -
20/06:30pm 26.2 E 16 17 1012.2 - - - - - - - - -
20/06:00pm 26.2 E 17 19 1011.7 - - - - - - - - -
20/05:30pm 26.2 E 17 19 1011.4 - - - - - - - - -
20/05:00pm 26.4 E 17 21 1011.0 - - - - - - - - -
20/04:30pm 26.5 E 17 20 1010.7 - - - - - - - - -
20/04:00pm 26.6 E 17 19 1010.7 - - - - - - - - -
20/03:30pm 26.7 E 16 19 1011.0 - - - - - - - - -
20/03:00pm 26.8 E 16 18 1011.2 - - - - - - - - -
20/02:30pm 26.7 E 14 16 1011.7 - - - - - - - - -
20/02:00pm 26.9 E 15 17 1011.8 - - - - - - - - -
20/01:30pm 27.2 ESE 15 17 1012.1 - - - - - - - - -
20/01:00pm 27.3 ESE 14 16 1012.5 - - - - - - - - -
20/12:30pm 27.1 ESE 13 15 1012.9 - - - - - - - - -
20/12:00pm 27.4 ESE 14 16 1013.2 - - - - - - - - -
20/11:30am 27.1 ESE 13 15 1013.5 - - - - - - - - -
20/11:00am 27.3 ESE 13 15 1013.8 - - - - - - - - -
20/10:30am 27.1 SE 12 13 1013.9 - - - - - - - - -
20/10:00am 26.6 SE 11 13 1014.0 - - - - - - - - -
20/09:30am 26.2 SSE 9 11 1013.7 - - - - - - - - -
20/09:00am 26.3 S 8 10 1013.7 - - - - - - - - -
20/08:30am 26.1 S 8 9 1013.4 - - - - - - - - -
20/08:00am 25.3 S 11 13 1013.5 - - - - - - - - -
20/07:30am 25.0 SSW 8 10 1013.2 - - - - - - - - -
20/07:00am 24.5 SSW 7 8 1012.9 - - - - - - - - -
20/06:30am 23.8 SSW 9 11 1012.7 - - - - - - - - -
20/06:00am 24.2 SW 8 9 1012.1 - - - - - - - - -
20/05:30am 24.3 SW 5 6 1011.7 - - - - - - - - -
20/05:00am 24.4 WSW 4 5 1011.1 - - - - - - - - -
20/04:30am 24.6 W 4 5 1010.7 - - - - - - - - -
20/04:00am 24.7 WNW 5 5 1010.4 - - - - - - - - -
20/03:30am 24.8 W 3 4 1010.5 - - - - - - - - -
20/03:00am 24.8 W 3 4 1010.4 - - - - - - - - -
20/02:30am 24.9 W 3 4 1010.6 - - - - - - - - -
20/02:00am 25.2 NW 3 4 1010.9 - - - - - - - - -
20/01:30am 25.3 NW 5 6 1011.1 - - - - - - - - -
20/01:00am 25.3 NW 5 7 1011.2 - - - - - - - - -
20/12:30am 25.4 NNW 6 7 1011.5 - - - - - - - - -
20/12:00am 25.4 NNW 7 8 1011.9 - - - - - - - - -
 
Date/Time
EST
Temp

°C
Wind Pressure Rain
since 9am
mm
Weather Cloud Vis
km
Sea
Height
m
Swell
Dir
 
Speed
knots
Gust
knots
hPa Trend Height
m
Period
s
Dir
19/11:30pm 25.6 NNW 6 7 1012.2 - - - - - - - - -
19/11:00pm 25.6 NNW 6 7 1012.5 - - - - - - - - -
19/10:30pm 25.8 N 4 5 1012.7 - - - - - - - - -
19/10:00pm 25.8 N 4 5 1012.9 - - - - - - - - -
19/09:30pm 25.8 N 3 4 1012.7 - - - - - - - - -
19/09:00pm 25.7 NNE 4 5 1012.4 - - - - - - - - -
19/08:30pm 25.6 NNE 5 6 1012.2 - - - - - - - - -
19/08:00pm 25.6 NE 5 7 1012.0 - - - - - - - - -
19/07:30pm 25.6 NE 6 7 1011.9 - - - - - - - - -
19/07:00pm 25.6 ENE 6 7 1011.6 - - - - - - - - -
19/06:30pm 25.7 ENE 5 6 1011.4 - - - - - - - - -
19/06:00pm 25.9 ENE 5 6 1011.0 - - - - - - - - -

Other Formats:

Comma delimited format used in spreadsheet applications
http://www.bom.gov.au/fwo/IDQ60701/IDQ60701.94378.axf

JavaScript Object Notation format (JSON) in row-major order
http://www.bom.gov.au/fwo/IDQ60701/IDQ60701.94378.json